Time;durP1;ratioP1;P1;durP2;ratioP2;P2;SDS_P1;SDS_P2;PMS_P1;PMS_P2;Temp;Humidity;BMP_temperature;BMP_pressure;BME280_temperature;BME280_humidity;BME280_pressure;Samples;Min_cycle;Max_cycle;Signal;HPM_P1;HPM_P2
2022/10/07 00:00:32;;;;;;;6.67;3.03;;;10.40;93.70;;;;;;20914335;28;20212;-72
2022/10/07 00:10:42;;;;;;;6.37;2.80;;;10.40;94.00;;;;;;20914212;28;20232;-71
2022/10/07 00:20:43;;;;;;;4.53;2.50;;;10.40;94.10;;;;;;20913404;28;20208;-73
2022/10/07 00:30:45;;;;;;;4.87;2.50;;;10.40;94.40;;;;;;20912787;28;20239;-71
2022/10/07 00:40:47;;;;;;;7.47;3.37;;;10.30;94.00;;;;;;20912625;28;20303;-70
2022/10/07 00:50:51;;;;;;;10.50;3.50;;;10.30;94.10;;;;;;20911427;28;20274;-72
2022/10/07 01:00:53;;;;;;;8.03;2.90;;;10.00;93.90;;;;;;20911443;28;20207;-72
2022/10/07 01:11:12;;;;;;;10.77;2.97;;;10.00;93.90;;;;;;20921469;28;20712;-74
2022/10/07 01:21:35;;;;;;;6.10;2.67;;;10.00;94.20;;;;;;20927629;28;20204;-71
2022/10/07 01:31:44;;;;;;;9.40;3.40;;;9.90;94.70;;;;;;20926415;28;20238;-72
2022/10/07 01:41:47;;;;;;;6.30;2.60;;;9.80;94.50;;;;;;20926140;28;20678;-72
2022/10/07 01:52:09;;;;;;;5.60;2.80;;;9.80;94.50;;;;;;20923839;28;20236;-71
2022/10/07 02:02:41;;;;;;;9.47;3.20;;;9.80;94.60;;;;;;20924255;28;20211;-74
2022/10/07 02:13:12;;;;;;;5.00;2.50;;;9.80;94.50;;;;;;20923818;28;20302;-71
2022/10/07 02:23:17;;;;;;;5.37;3.00;;;9.80;94.40;;;;;;20922137;28;20222;-72
2022/10/07 02:33:24;;;;;;;11.03;4.20;;;9.60;94.70;;;;;;20921733;28;20239;-72
2022/10/07 02:43:35;;;;;;;8.47;3.33;;;9.60;95.00;;;;;;20920859;28;20244;-72
2022/10/07 02:53:38;;;;;;;16.77;4.50;;;9.60;95.00;;;;;;20919014;28;20247;-71
2022/10/07 03:03:41;;;;;;;8.67;4.30;;;9.60;95.00;;;;;;20919483;28;20200;-73
2022/10/07 03:13:44;;;;;;;16.67;4.80;;;9.60;95.40;;;;;;20918679;28;20235;-72
2022/10/07 03:23:51;;;;;;;12.53;5.10;;;9.70;95.60;;;;;;20917014;28;20233;-71
2022/10/07 03:33:55;;;;;;;14.47;5.27;;;9.80;95.70;;;;;;20915804;28;20235;-72
2022/10/07 03:43:58;;;;;;;17.60;6.90;;;9.70;95.50;;;;;;20914741;28;20207;-72
2022/10/07 03:53:59;;;;;;;10.10;5.93;;;9.70;96.00;;;;;;20914086;28;20242;-74
2022/10/07 04:04:01;;;;;;;17.63;5.80;;;9.60;96.40;;;;;;20914490;28;20210;-74
2022/10/07 04:14:03;;;;;;;13.63;5.97;;;9.60;96.80;;;;;;20913112;28;20232;-74
2022/10/07 04:24:04;;;;;;;11.27;5.67;;;9.60;97.10;;;;;;20912740;28;20204;-74
2022/10/07 04:34:07;;;;;;;10.03;4.40;;;9.60;97.20;;;;;;20912304;28;20240;-74
2022/10/07 04:44:09;;;;;;;11.90;5.73;;;9.90;97.10;;;;;;20911294;28;20204;-74
2022/10/07 04:54:10;;;;;;;8.13;3.97;;;10.00;96.50;;;;;;20910669;28;20650;-70
2022/10/07 05:04:13;;;;;;;10.60;3.57;;;9.80;96.80;;;;;;20906145;28;20200;-70
2022/10/07 05:14:18;;;;;;;7.13;3.53;;;9.90;97.30;;;;;;20909937;28;20243;-75
2022/10/07 05:24:20;;;;;;;6.40;4.03;;;9.90;97.00;;;;;;20910342;28;20203;-73
2022/10/07 05:34:22;;;;;;;11.87;5.17;;;9.50;97.10;;;;;;20908376;28;20241;-76
2022/10/07 05:44:24;;;;;;;7.27;3.80;;;9.00;97.50;;;;;;20909181;28;20540;-75
2022/10/07 05:54:25;;;;;;;11.23;4.83;;;8.80;97.90;;;;;;20911363;28;20259;-75
2022/10/07 06:04:27;;;;;;;14.03;4.60;;;8.80;97.80;;;;;;20923244;28;20209;-74
2022/10/07 06:14:29;;;;;;;11.43;4.20;;;8.70;98.20;;;;;;20921940;28;20233;-72
2022/10/07 06:24:32;;;;;;;6.87;4.60;;;8.40;98.60;;;;;;20921579;28;20222;-75
2022/10/07 06:34:34;;;;;;;10.80;5.70;;;8.40;98.30;;;;;;20931447;28;20233;-70
2022/10/07 06:44:36;;;;;;;8.83;5.77;;;8.70;98.70;;;;;;20933496;28;20259;-72
2022/10/07 06:54:37;;;;;;;9.43;5.23;;;8.80;98.60;;;;;;20966680;28;20243;-76
2022/10/07 07:04:39;;;;;;;11.63;5.73;;;9.00;98.80;;;;;;20912384;28;20242;-75
2022/10/07 07:14:43;;;;;;;11.57;5.00;;;9.10;98.20;;;;;;20965345;28;20295;-68
2022/10/07 07:24:45;;;;;;;10.17;5.50;;;9.10;98.20;;;;;;20993584;28;20261;-69
2022/10/07 07:34:47;;;;;;;8.10;4.60;;;9.20;98.20;;;;;;20992519;28;20238;-69
2022/10/07 07:44:48;;;;;;;10.07;4.70;;;9.20;98.20;;;;;;20971030;28;20204;-70
2022/10/07 07:54:51;;;;;;;13.43;4.80;;;9.40;98.30;;;;;;20908277;28;20244;-68
2022/10/07 08:04:52;;;;;;;10.50;4.53;;;9.60;98.60;;;;;;20907005;28;20207;-69
2022/10/07 08:14:54;;;;;;;15.13;4.47;;;9.80;98.20;;;;;;20904813;28;20705;-73
2022/10/07 08:24:58;;;;;;;12.20;4.17;;;10.50;97.30;;;;;;20906266;28;20208;-67
2022/10/07 08:35:00;;;;;;;11.00;4.47;;;10.50;97.50;;;;;;20904685;28;20233;-68
2022/10/07 08:45:03;;;;;;;12.37;4.10;;;11.00;97.00;;;;;;20927487;28;20655;-68
2022/10/07 08:55:27;;;;;;;5.67;3.70;;;11.00;96.90;;;;;;20986091;28;20305;-70
2022/10/07 09:05:39;;;;;;;9.13;4.37;;;11.20;96.70;;;;;;20986747;28;20205;-71
2022/10/07 09:15:48;;;;;;;11.27;4.10;;;11.80;96.20;;;;;;20986039;28;20318;-71
2022/10/07 09:25:51;;;;;;;12.60;6.97;;;12.40;95.70;;;;;;20986567;28;20693;-70
2022/10/07 09:35:55;;;;;;;10.63;4.80;;;12.40;95.80;;;;;;21001209;28;20241;-70
2022/10/07 09:46:00;;;;;;;19.97;7.30;;;12.70;95.60;;;;;;20970233;28;20206;-70
2022/10/07 09:56:01;;;;;;;16.10;7.40;;;12.90;95.10;;;;;;20917415;28;20557;-70
2022/10/07 10:06:07;;;;;;;17.40;6.60;;;13.30;94.80;;;;;;20916537;28;20208;-72
2022/10/07 10:16:24;;;;;;;9.50;5.13;;;13.90;93.90;;;;;;20910884;28;20269;-73
2022/10/07 10:26:40;;;;;;;8.13;4.90;;;14.00;94.00;;;;;;20918625;28;20211;-72
2022/10/07 10:36:45;;;;;;;9.30;4.43;;;14.30;93.60;;;;;;20938060;28;20254;-72
2022/10/07 10:47:14;;;;;;;10.60;4.37;;;14.60;93.30;;;;;;20969250;28;20622;-74
2022/10/07 10:57:39;;;;;;;13.97;4.57;;;14.80;92.80;;;;;;20923400;28;20269;-74
2022/10/07 11:07:46;;;;;;;10.47;4.67;;;15.10;92.50;;;;;;20918320;28;20249;-72
2022/10/07 11:17:51;;;;;;;11.20;3.90;;;15.60;91.80;;;;;;20992934;28;20234;-72
2022/10/07 11:28:11;;;;;;;12.23;3.73;;;15.80;91.70;;;;;;20992605;28;20220;-73
2022/10/07 11:38:17;;;;;;;9.93;3.63;;;16.00;91.80;;;;;;20991841;28;20237;-71
2022/10/07 11:48:27;;;;;;;13.73;3.70;;;16.20;91.60;;;;;;20919649;28;20572;-72
2022/10/07 11:58:33;;;;;;;11.90;3.70;;;16.50;91.40;;;;;;20909011;28;20230;-73
2022/10/07 12:08:41;;;;;;;7.17;3.50;;;16.70;91.20;;;;;;20913014;28;20205;-73
2022/10/07 12:19:06;;;;;;;7.83;3.47;;;17.00;91.10;;;;;;20908800;28;20260;-69
2022/10/07 12:29:27;;;;;;;8.70;3.00;;;17.30;90.90;;;;;;20909479;28;20566;-71
2022/10/07 12:39:36;;;;;;;10.80;3.13;;;17.40;90.70;;;;;;20911045;28;20309;-70
2022/10/07 12:49:46;;;;;;;8.97;3.10;;;17.50;90.80;;;;;;20991223;28;20287;-69
2022/10/07 12:59:57;;;;;;;7.47;3.00;;;17.50;90.80;;;;;;20992853;28;20321;-72
2022/10/07 13:10:31;;;;;;;19.43;3.30;;;17.60;91.10;;;;;;20992422;28;20200;-73
2022/10/07 13:20:35;;;;;;;14.33;4.27;;;17.80;91.40;;;;;;20908186;28;20293;-73
2022/10/07 13:30:40;;;;;;;8.00;2.90;;;17.90;91.60;;;;;;20908875;28;20210;-74
2022/10/07 13:40:41;;;;;;;8.63;3.30;;;17.90;91.80;;;;;;20916318;28;20234;-72
2022/10/07 13:50:44;;;;;;;5.00;2.53;;;18.00;92.00;;;;;;20946268;28;20273;-75
2022/10/07 14:00:46;;;;;;;6.80;4.00;;;18.10;92.30;;;;;;20899205;28;20249;-72
2022/10/07 14:11:04;;;;;;;5.70;3.10;;;18.10;92.50;;;;;;20903776;28;20225;-74
2022/10/07 14:21:09;;;;;;;5.80;3.20;;;18.40;92.60;;;;;;20912569;28;20235;-75
2022/10/07 14:41:38;;;;;;;11.20;3.43;;;18.30;92.90;;;;;;20928935;28;20576;-73
2022/10/07 14:51:42;;;;;;;10.40;3.10;;;18.40;93.00;;;;;;20996289;28;20238;-72
2022/10/07 15:01:43;;;;;;;18.67;4.67;;;18.80;93.20;;;;;;20994155;28;20674;-69
2022/10/07 15:11:45;;;;;;;11.53;4.90;;;19.80;91.60;;;;;;20987023;28;20263;-72
2022/10/07 15:21:47;;;;;;;6.77;3.67;;;19.60;92.30;;;;;;20911847;28;20214;-69
2022/10/07 15:31:51;;;;;;;6.80;3.57;;;19.00;93.20;;;;;;20909757;28;20234;-75
2022/10/07 15:41:53;;;;;;;10.43;4.17;;;18.30;93.60;;;;;;20925769;28;20668;-71
2022/10/07 15:51:55;;;;;;;8.13;3.80;;;18.30;93.90;;;;;;20957714;28;20696;-71
2022/10/07 16:01:56;;;;;;;16.37;5.40;;;18.10;94.60;;;;;;20908297;28;20699;-71
2022/10/07 16:11:58;;;;;;;14.77;6.90;;;17.90;94.70;;;;;;20907618;28;20225;-71
2022/10/07 16:22:00;;;;;;;16.67;6.80;;;17.80;95.30;;;;;;20908328;28;20200;-70
2022/10/07 16:32:02;;;;;;;13.87;7.03;;;17.60;95.70;;;;;;20907352;28;20248;-72
2022/10/07 16:42:04;;;;;;;17.23;6.57;;;17.50;96.20;;;;;;20924931;28;20220;-74
2022/10/07 16:52:09;;;;;;;10.10;5.87;;;17.40;96.60;;;;;;20989449;28;20271;-71
2022/10/07 17:02:11;;;;;;;13.30;6.43;;;17.30;97.10;;;;;;20954848;28;20205;-76
2022/10/07 17:12:13;;;;;;;9.93;5.97;;;17.20;97.70;;;;;;20905767;28;20228;-76
2022/10/07 17:22:14;;;;;;;15.37;6.80;;;17.00;98.20;;;;;;20905941;28;20202;-73
2022/10/07 17:32:16;;;;;;;20.40;10.03;;;16.90;98.70;;;;;;20904744;28;20232;-72
2022/10/07 17:42:18;;;;;;;15.80;9.97;;;16.70;99.10;;;;;;20924972;28;20208;-71
2022/10/07 17:52:20;;;;;;;18.57;9.93;;;16.60;99.30;;;;;;20994045;28;20250;-72
2022/10/07 18:02:27;;;;;;;20.60;10.93;;;16.40;99.60;;;;;;21001904;28;20204;-71
2022/10/07 18:22:57;;;;;;;14.83;9.00;;;16.20;99.90;;;;;;20999671;28;20211;-74
2022/10/07 18:32:59;;;;;;;18.90;10.17;;;16.10;99.90;;;;;;20999310;28;20266;-72
2022/10/07 18:43:00;;;;;;;23.77;14.07;;;16.00;99.90;;;;;;20973136;28;20204;-69
2022/10/07 18:53:02;;;;;;;23.30;13.37;;;15.90;99.90;;;;;;20915711;28;20345;-71
2022/10/07 19:03:03;;;;;;;29.17;17.23;;;15.80;99.90;;;;;;20914573;28;20517;-71
2022/10/07 19:23:27;;;;;;;26.37;15.33;;;15.60;99.90;;;;;;20912067;28;20206;-71
2022/10/07 19:33:28;;;;;;;23.57;16.40;;;15.50;99.90;;;;;;20911269;28;20238;-68
2022/10/07 19:43:33;;;;;;;35.00;18.10;;;15.50;99.90;;;;;;20911882;28;20233;-72
2022/10/07 19:53:35;;;;;;;27.37;17.87;;;15.40;99.90;;;;;;20914603;28;20298;-72
2022/10/07 20:03:37;;;;;;;18.70;11.17;;;15.30;99.90;;;;;;20913995;28;20208;-73
2022/10/07 20:13:39;;;;;;;14.43;9.60;;;15.20;99.90;;;;;;20912027;28;20263;-72
2022/10/07 20:23:44;;;;;;;18.17;9.30;;;15.10;99.90;;;;;;20912311;28;20577;-72
2022/10/07 20:33:50;;;;;;;20.07;10.37;;;15.10;99.90;;;;;;20910660;28;20285;-72
2022/10/07 20:43:52;;;;;;;17.17;9.27;;;15.10;99.90;;;;;;20910697;28;20204;-72
2022/10/07 20:53:53;;;;;;;16.53;9.03;;;15.00;99.90;;;;;;20909639;28;20248;-72
2022/10/07 21:03:55;;;;;;;14.70;10.27;;;14.90;99.90;;;;;;20909399;28;20204;-72
2022/10/07 21:13:57;;;;;;;21.37;10.03;;;14.90;99.90;;;;;;20908807;28;20270;-72
2022/10/07 21:23:59;;;;;;;14.83;9.30;;;14.90;99.90;;;;;;20912646;28;20305;-72
2022/10/07 21:34:06;;;;;;;13.63;8.53;;;14.80;99.90;;;;;;20924756;28;20235;-72
2022/10/07 21:44:11;;;;;;;15.73;10.50;;;14.80;99.90;;;;;;20924445;28;20204;-72
2022/10/07 21:54:13;;;;;;;16.63;11.10;;;14.70;99.90;;;;;;20923566;28;20277;-72
2022/10/07 22:08:50;;;;;;;16.10;10.83;;;14.50;99.90;;;;;;21192102;27;1225639;-71
2022/10/07 22:18:56;;;;;;;17.53;11.37;;;14.40;99.90;;;;;;21148065;28;20205;-72
2022/10/07 22:28:58;;;;;;;16.03;10.30;;;14.30;99.90;;;;;;21147020;28;20219;-71
2022/10/07 22:39:00;;;;;;;16.57;9.60;;;14.30;99.90;;;;;;21146883;28;20297;-72
2022/10/07 22:49:02;;;;;;;14.67;10.30;;;14.30;99.90;;;;;;21147284;28;20206;-71
2022/10/07 22:59:05;;;;;;;14.83;9.37;;;14.30;99.90;;;;;;21147465;28;20207;-71
2022/10/07 23:09:07;;;;;;;21.73;9.30;;;14.30;99.90;;;;;;21146731;28;20252;-71
2022/10/07 23:19:08;;;;;;;15.93;8.47;;;14.20;99.90;;;;;;21095813;28;20269;-71
2022/10/07 23:29:11;;;;;;;13.03;8.03;;;14.10;99.90;;;;;;21088872;28;20217;-71
2022/10/07 23:39:12;;;;;;;13.57;8.20;;;14.10;99.90;;;;;;21088487;28;20635;-71
2022/10/07 23:49:15;;;;;;;9.83;7.30;;;14.00;99.90;;;;;;21087514;28;20214;-71
2022/10/07 23:59:17;;;;;;;11.17;8.43;;;13.90;99.90;;;;;;21086025;28;20613;-70
